createdAt,value
2018-08-03T00:01:31.696Z,101831.68
2018-08-03T00:04:00.533Z,101829.37
2018-08-03T00:06:29.402Z,101829.89
2018-08-03T00:08:58.274Z,101834.59
2018-08-03T00:11:27.124Z,101839.00
2018-08-03T00:13:55.970Z,101842.58
2018-08-03T00:16:24.862Z,101837.69
2018-08-03T00:18:59.914Z,101836.83
2018-08-03T00:21:28.774Z,101836.31
2018-08-03T00:23:57.798Z,101835.64
2018-08-03T00:26:26.691Z,101835.56
2018-08-03T00:28:55.530Z,101828.06
2018-08-03T00:31:24.375Z,101826.72
2018-08-03T00:33:53.256Z,101821.30
2018-08-03T00:36:22.196Z,101818.98
2018-08-03T00:38:51.064Z,101816.98
2018-08-03T00:41:20.108Z,101812.36
2018-08-03T00:43:48.978Z,101809.11
2018-08-03T00:46:17.824Z,101818.22
2018-08-03T00:48:46.939Z,101817.30
2018-08-03T00:51:15.813Z,101813.52
2018-08-03T00:53:44.659Z,101813.74
2018-08-03T00:56:13.532Z,101810.77
2018-08-03T00:58:42.419Z,101822.38
2018-08-03T01:01:11.327Z,101817.84
2018-08-03T01:03:40.181Z,101817.31
2018-08-03T01:06:09.093Z,101816.00
2018-08-03T01:08:37.934Z,101814.28
2018-08-03T01:11:06.808Z,101814.67
2018-08-03T01:13:35.691Z,101818.55
2018-08-03T01:16:04.594Z,101814.83
2018-08-03T01:18:33.472Z,101808.53
2018-08-03T01:21:02.324Z,101814.58
2018-08-03T01:23:31.402Z,101810.84
2018-08-03T01:26:01.796Z,101809.81
2018-08-03T01:28:30.654Z,101814.00
2018-08-03T01:30:59.476Z,101812.33
2018-08-03T01:33:28.370Z,101814.23
2018-08-03T01:35:57.220Z,101804.78
2018-08-03T01:38:26.112Z,101807.42
2018-08-03T01:40:54.980Z,101813.45
2018-08-03T01:43:23.870Z,101819.02
2018-08-03T01:45:52.711Z,101820.79
2018-08-03T01:48:29.207Z,101814.55
2018-08-03T01:50:58.069Z,101817.86
2018-08-03T01:53:26.927Z,101817.02
2018-08-03T01:55:55.823Z,101819.12
2018-08-03T01:58:24.725Z,101814.66
2018-08-03T02:00:53.622Z,101821.23
2018-08-03T02:03:22.588Z,101817.80
2018-08-03T02:05:51.385Z,101820.69
2018-08-03T02:08:20.269Z,101816.59
2018-08-03T02:10:49.353Z,101821.77
2018-08-03T02:13:18.267Z,101819.91
2018-08-03T02:15:47.165Z,101814.06
2018-08-03T02:18:16.055Z,101817.34
2018-08-03T02:20:44.950Z,101815.45
2018-08-03T02:23:13.802Z,101812.73
2018-08-03T02:25:42.785Z,101812.05
2018-08-03T02:28:11.614Z,101812.42
2018-08-03T02:30:40.501Z,101812.28
2018-08-03T02:33:09.518Z,101811.59
2018-08-03T02:35:38.399Z,101814.55
2018-08-03T02:38:07.470Z,101824.00
2018-08-03T02:40:36.403Z,101820.58
2018-08-03T02:43:05.266Z,101817.31
2018-08-03T02:45:34.136Z,101816.80
2018-08-03T02:48:03.047Z,101818.92
2018-08-03T02:50:32.127Z,101819.23
2018-08-03T02:53:01.004Z,101830.41
2018-08-03T02:55:32.400Z,101825.84
2018-08-03T02:58:01.273Z,101823.98
2018-08-03T03:00:30.151Z,101825.70
2018-08-03T03:02:59.027Z,101831.56
2018-08-03T03:05:27.876Z,101828.81
2018-08-03T03:07:56.730Z,101822.99
2018-08-03T03:10:25.576Z,101823.51
2018-08-03T03:12:54.433Z,101820.76
2018-08-03T03:15:23.293Z,101816.12
2018-08-03T03:17:53.820Z,101818.66
2018-08-03T03:20:22.714Z,101820.16
2018-08-03T03:22:51.580Z,101812.51
2018-08-03T03:25:20.471Z,101813.19
2018-08-03T03:27:49.330Z,101809.75
2018-08-03T03:30:18.176Z,101815.59
2018-08-03T03:32:47.060Z,101814.59
2018-08-03T03:35:15.908Z,101803.59
2018-08-03T03:37:44.796Z,101805.67
2018-08-03T03:40:15.187Z,101810.14
2018-08-03T03:42:44.114Z,101810.31
2018-08-03T03:45:12.965Z,101808.76
2018-08-03T03:47:41.852Z,101802.73
2018-08-03T03:50:10.742Z,101803.59
2018-08-03T03:52:39.625Z,101807.72
2018-08-03T03:55:08.520Z,101802.58
2018-08-03T03:57:37.417Z,101804.62
2018-08-03T04:00:07.112Z,101810.61
2018-08-03T04:02:36.195Z,101815.12
2018-08-03T04:05:05.609Z,101814.25
2018-08-03T04:07:34.464Z,101813.04
2018-08-03T04:10:03.364Z,101809.07
2018-08-03T04:12:32.402Z,101816.11
2018-08-03T04:15:01.342Z,101813.56
2018-08-03T04:17:30.204Z,101822.83
2018-08-03T04:19:59.092Z,101821.09
2018-08-03T04:22:27.959Z,101820.41
2018-08-03T04:24:59.971Z,101820.41
2018-08-03T04:27:28.835Z,101814.39
2018-08-03T04:29:57.669Z,101817.16
2018-08-03T04:32:26.560Z,101818.70
2018-08-03T04:34:55.411Z,101819.38
2018-08-03T04:37:24.300Z,101817.84
2018-08-03T04:39:53.184Z,101810.44
2018-08-03T04:42:22.210Z,101814.95
2018-08-03T04:44:50.925Z,101814.22
2018-08-03T04:47:19.926Z,101821.26
2018-08-03T04:49:48.769Z,101820.94
2018-08-03T04:52:17.689Z,101821.62
2018-08-03T04:54:46.549Z,101820.23
2018-08-03T04:57:15.353Z,101817.84
2018-08-03T04:59:44.180Z,101822.83
2018-08-03T05:02:13.048Z,101823.50
2018-08-03T05:04:41.968Z,101821.97
2018-08-03T05:07:10.899Z,101825.75
2018-08-03T05:09:39.757Z,101826.41
2018-08-03T05:12:09.294Z,101826.11
2018-08-03T05:14:38.136Z,101823.70
2018-08-03T05:17:06.999Z,101832.80
2018-08-03T05:19:35.864Z,101830.04
2018-08-03T05:22:04.750Z,101833.32
2018-08-03T05:24:33.591Z,101832.61
2018-08-03T05:27:02.460Z,101830.70
2018-08-03T05:29:32.489Z,101832.56
2018-08-03T05:32:01.364Z,101839.63
2018-08-03T05:34:30.199Z,101838.05
2018-08-03T05:36:59.046Z,101835.78
2018-08-03T05:39:27.884Z,101833.63
2018-08-03T05:41:56.743Z,101829.55
2018-08-03T05:44:25.616Z,101829.68
2018-08-03T05:46:54.441Z,101830.70
2018-08-03T05:49:23.287Z,101823.95
2018-08-03T05:51:52.168Z,101829.40
2018-08-03T05:54:21.054Z,101827.78
2018-08-03T05:56:49.928Z,101823.03
2018-08-03T05:59:18.798Z,101827.59
2018-08-03T06:01:47.634Z,101824.21
2018-08-03T06:04:16.499Z,101830.07
2018-08-03T06:06:45.360Z,101821.80
2018-08-03T06:09:14.202Z,101822.17
2018-08-03T06:11:43.086Z,101813.06
2018-08-03T06:14:12.092Z,101811.98
2018-08-03T06:16:40.943Z,101809.37
2018-08-03T06:19:09.783Z,101811.25
2018-08-03T06:21:38.627Z,101815.19
2018-08-03T06:24:07.514Z,101807.72
2018-08-03T06:26:36.329Z,101811.66
2018-08-03T06:29:05.207Z,101805.27
2018-08-03T06:31:34.099Z,101803.17
2018-08-03T06:34:02.973Z,101803.49
2018-08-03T06:36:35.035Z,101799.11
2018-08-03T06:39:04.380Z,101802.81
2018-08-03T06:41:33.261Z,101803.83
2018-08-03T06:44:02.118Z,101799.50
2018-08-03T06:46:30.955Z,101794.83
2018-08-03T06:48:59.896Z,101790.08
2018-08-03T06:51:28.730Z,101792.77
2018-08-03T06:53:57.696Z,101789.54
2018-08-03T06:56:26.590Z,101793.25
2018-08-03T06:58:55.442Z,101795.13
2018-08-03T07:01:24.275Z,101788.70
2018-08-03T07:03:53.365Z,101789.35
2018-08-03T07:06:22.225Z,101782.16
2018-08-03T07:08:51.046Z,101781.75
2018-08-03T07:11:19.908Z,101788.12
2018-08-03T07:13:48.741Z,101794.60
2018-08-03T07:16:17.595Z,101796.41
2018-08-03T07:18:46.477Z,101794.74
2018-08-03T07:21:15.590Z,101797.70
2018-08-03T07:23:44.460Z,101798.12
2018-08-03T07:26:13.291Z,101809.08
2018-08-03T07:28:42.209Z,101805.20
2018-08-03T07:31:11.058Z,101802.25
2018-08-03T07:33:39.897Z,101801.41
2018-08-03T07:36:08.747Z,101802.29
2018-08-03T07:38:37.600Z,101796.55
2018-08-03T07:41:06.416Z,101791.75
2018-08-03T07:43:35.496Z,101791.06
2018-08-03T07:46:04.266Z,101786.38
2018-08-03T07:48:33.112Z,101792.56
2018-08-03T07:51:02.543Z,101795.63
2018-08-03T07:53:31.665Z,101787.38
2018-08-03T07:56:00.619Z,101792.16
2018-08-03T07:58:29.479Z,101782.68
2018-08-03T08:00:58.381Z,101788.16
2018-08-03T08:03:27.264Z,101787.57
2018-08-03T08:05:59.105Z,101779.40
2018-08-03T08:08:27.982Z,101779.73
2018-08-03T08:10:56.881Z,101784.21
2018-08-03T08:13:25.761Z,101785.20
2018-08-03T08:15:54.676Z,101776.47
2018-08-03T08:18:23.562Z,101778.70
2018-08-03T08:20:53.053Z,101778.55
2018-08-03T08:23:21.899Z,101784.38
2018-08-03T08:25:50.726Z,101782.00
2018-08-03T08:28:19.713Z,101772.18
2018-08-03T08:30:48.560Z,101775.02
2018-08-03T08:33:17.451Z,101773.17
2018-08-03T08:35:46.299Z,101765.58
2018-08-03T08:38:16.147Z,101772.48
2018-08-03T08:40:45.037Z,101768.44
2018-08-03T08:43:13.887Z,101763.86
2018-08-03T08:45:42.741Z,101762.06
2018-08-03T08:48:11.714Z,101763.58
2018-08-03T08:50:43.472Z,101758.67
2018-08-03T08:53:12.335Z,101750.03
2018-08-03T08:55:41.182Z,101757.94
2018-08-03T08:58:10.041Z,101752.02
2018-08-03T09:00:38.887Z,101754.16
2018-08-03T09:03:07.842Z,101753.39
2018-08-03T09:05:36.750Z,101757.80
2018-08-03T09:08:05.625Z,101754.59
2018-08-03T09:10:34.541Z,101748.30
2018-08-03T09:13:03.649Z,101749.13
2018-08-03T09:15:32.394Z,101750.91
2018-08-03T09:18:01.292Z,101754.38
2018-08-03T09:20:30.231Z,101755.55
2018-08-03T09:22:59.204Z,101744.51
2018-08-03T09:25:28.115Z,101747.90
2018-08-03T09:27:56.972Z,101745.28
2018-08-03T09:30:25.925Z,101739.94
2018-08-03T09:32:55.088Z,101742.30
2018-08-03T09:35:24.384Z,101743.97
2018-08-03T09:37:53.207Z,101737.53
2018-08-03T09:40:22.531Z,101743.97
2018-08-03T09:42:51.544Z,101738.94
2018-08-03T09:45:20.419Z,101737.97
2018-08-03T09:47:49.300Z,101728.34
2018-08-03T09:50:18.216Z,101738.83
2018-08-03T09:52:47.213Z,101731.44
2018-08-03T09:55:16.197Z,101733.23
2018-08-03T09:57:45.180Z,101729.51
2018-08-03T10:00:16.327Z,101726.76
2018-08-03T10:02:46.264Z,101721.66
2018-08-03T10:05:15.127Z,101716.59
2018-08-03T10:07:44.000Z,101715.39
2018-08-03T10:10:12.993Z,101715.53
2018-08-03T10:12:41.928Z,101722.03
2018-08-03T10:15:10.745Z,101725.66
2018-08-03T10:17:39.579Z,101717.44
2018-08-03T10:20:08.780Z,101718.97
2018-08-03T10:22:38.393Z,101711.92
2018-08-03T10:25:07.269Z,101705.59
2018-08-03T10:27:36.160Z,101707.99
2018-08-03T10:30:05.747Z,101706.56
2018-08-03T10:32:35.032Z,101702.49
2018-08-03T10:35:04.780Z,101705.64
2018-08-03T10:37:33.734Z,101697.53
2018-08-03T10:40:09.257Z,101694.84
2018-08-03T10:42:38.102Z,101688.77
2018-08-03T10:45:06.951Z,101683.31
2018-08-03T10:47:35.783Z,101680.39
2018-08-03T10:50:04.636Z,101676.75
2018-08-03T10:52:33.488Z,101677.16
2018-08-03T10:55:02.347Z,101668.88
2018-08-03T10:57:31.228Z,101677.77
2018-08-03T11:00:00.119Z,101677.28
2018-08-03T11:02:29.003Z,101672.52
2018-08-03T11:04:57.846Z,101665.13
2018-08-03T11:07:26.710Z,101667.20
2018-08-03T11:09:55.590Z,101671.00
2018-08-03T11:12:24.506Z,101662.33
2018-08-03T11:14:53.323Z,101671.30
2018-08-03T11:17:22.170Z,101669.18
2018-08-03T11:19:51.014Z,101663.28
2018-08-03T11:22:19.890Z,101660.95
2018-08-03T11:24:48.890Z,101653.86
2018-08-03T11:27:17.736Z,101650.27
2018-08-03T11:29:46.665Z,101650.55
2018-08-03T11:32:15.451Z,101650.74
2018-08-03T11:34:44.321Z,101648.20
2018-08-03T11:37:13.165Z,101642.20
2018-08-03T11:39:42.012Z,101645.20
2018-08-03T11:42:10.871Z,101641.06
2018-08-03T11:44:40.408Z,101638.55
2018-08-03T11:47:10.634Z,101631.88
2018-08-03T11:49:40.377Z,101639.82
2018-08-03T11:52:10.399Z,101629.58
2018-08-03T11:54:40.332Z,101625.53
2018-08-03T11:57:09.122Z,101623.59
2018-08-03T11:59:37.949Z,101627.67
2018-08-03T12:02:06.840Z,101620.88
2018-08-03T12:04:35.710Z,101620.52
2018-08-03T12:07:04.630Z,101612.66
2018-08-03T12:09:33.509Z,101615.29
2018-08-03T12:12:02.409Z,101608.42
2018-08-03T12:14:31.290Z,101604.94
2018-08-03T12:17:00.181Z,101601.15
2018-08-03T12:19:29.081Z,101600.42
2018-08-03T12:21:58.073Z,101601.52
2018-08-03T12:24:27.036Z,101593.51
2018-08-03T12:26:55.882Z,101590.38
2018-08-03T12:29:24.740Z,101588.63
2018-08-03T12:31:53.837Z,101591.84
2018-08-03T12:34:22.743Z,101590.06
2018-08-03T12:36:51.918Z,101585.97
2018-08-03T12:39:21.110Z,101578.23
2018-08-03T12:41:50.005Z,101578.80
2018-08-03T12:44:19.066Z,101570.27
2018-08-03T12:46:47.889Z,101574.81
2018-08-03T12:49:17.085Z,101567.34
2018-08-03T12:51:46.001Z,101567.28
2018-08-03T12:54:14.778Z,101557.62
2018-08-03T12:56:43.742Z,101564.05
2018-08-03T12:59:12.913Z,101553.52
2018-08-03T13:01:41.883Z,101558.52
2018-08-03T13:04:10.754Z,101564.63
2018-08-03T13:06:39.711Z,101559.31
2018-08-03T13:09:08.541Z,101559.57
2018-08-03T13:11:37.403Z,101556.78
2018-08-03T13:14:06.341Z,101559.37
2018-08-03T13:16:35.183Z,101546.80
2018-08-03T13:19:04.020Z,101544.28
2018-08-03T13:21:37.649Z,101544.80
2018-08-03T13:24:06.662Z,101538.93
2018-08-03T13:26:35.561Z,101538.90
2018-08-03T13:29:04.426Z,101537.84
2018-08-03T13:31:33.309Z,101529.47
2018-08-03T13:34:02.147Z,101526.06
2018-08-03T13:36:31.715Z,101526.96
2018-08-03T13:39:00.691Z,101520.97
2018-08-03T13:41:29.488Z,101523.25
2018-08-03T13:43:58.348Z,101522.38
2018-08-03T13:46:27.183Z,101520.80
2018-08-03T13:48:56.044Z,101517.09
2018-08-03T13:51:24.893Z,101510.58
2018-08-03T13:53:55.248Z,101511.29
2018-08-03T13:56:24.173Z,101510.78
2018-08-03T13:58:53.062Z,101507.98
2018-08-03T14:02:17.122Z,101487.82
2018-08-03T14:04:46.083Z,101499.77
2018-08-03T14:07:14.943Z,101495.44
2018-08-03T14:09:43.783Z,101501.61
2018-08-03T14:12:12.792Z,101497.00
2018-08-03T14:14:42.098Z,101503.66
2018-08-03T14:17:11.391Z,101495.63
2018-08-03T14:19:40.890Z,101489.09
2018-08-03T14:22:09.777Z,101493.81
2018-08-03T14:24:38.576Z,101489.98
2018-08-03T14:27:07.541Z,101488.94
2018-08-03T14:29:36.404Z,101493.39
2018-08-03T14:32:05.863Z,101490.56
2018-08-03T14:34:34.794Z,101486.08
2018-08-03T14:37:03.592Z,101482.21
2018-08-03T14:39:32.472Z,101485.35
2018-08-03T14:42:01.314Z,101488.13
2018-08-03T14:44:30.178Z,101489.69
2018-08-03T14:46:59.462Z,101493.66
2018-08-03T14:49:28.343Z,101489.23
2018-08-03T14:51:57.163Z,101486.22
2018-08-03T14:54:26.040Z,101482.64
2018-08-03T14:56:55.075Z,101488.42
2018-08-03T14:59:24.098Z,101488.53
2018-08-03T15:01:53.140Z,101488.05
2018-08-03T15:04:22.046Z,101484.73
2018-08-03T15:06:50.985Z,101481.34
2018-08-03T15:09:19.807Z,101483.89
2018-08-03T15:11:48.654Z,101484.48
2018-08-03T15:14:17.499Z,101482.55
2018-08-03T15:16:46.373Z,101484.53
2018-08-03T15:19:18.302Z,101486.73
2018-08-03T15:21:47.150Z,101485.91
2018-08-03T15:24:16.045Z,101490.92
2018-08-03T15:26:44.922Z,101482.95
2018-08-03T15:29:13.816Z,101483.25
2018-08-03T15:31:42.680Z,101478.23
2018-08-03T15:34:11.547Z,101479.73
2018-08-03T15:36:40.385Z,101477.63
2018-08-03T15:39:10.216Z,101487.48
2018-08-03T15:41:39.200Z,101477.91
2018-08-03T15:44:08.094Z,101478.19
2018-08-03T15:46:37.013Z,101482.69
2018-08-03T15:49:05.869Z,101480.95
2018-08-03T15:51:34.757Z,101477.85
2018-08-03T15:54:03.630Z,101476.45
2018-08-03T15:56:32.494Z,101470.53
2018-08-03T15:59:01.469Z,101471.37
2018-08-03T16:01:30.354Z,101469.97
2018-08-03T16:03:59.620Z,101468.56
2018-08-03T16:06:28.428Z,101465.74
2018-08-03T16:08:57.311Z,101460.95
2018-08-03T16:11:26.223Z,101465.22
2018-08-03T16:13:55.082Z,101468.89
2018-08-03T16:16:23.950Z,101469.45
2018-08-03T16:18:52.855Z,101454.80
2018-08-03T16:21:21.730Z,101460.16
2018-08-03T16:23:50.584Z,101453.72
2018-08-03T16:26:19.523Z,101452.31
2018-08-03T16:28:48.416Z,101451.75
2018-08-03T16:31:17.536Z,101457.09
2018-08-03T16:33:46.384Z,101457.09
2018-08-03T16:36:15.225Z,101450.09
2018-08-03T16:38:44.109Z,101445.06
2018-08-03T16:41:12.953Z,101443.36
2018-08-03T16:43:42.352Z,101450.69
2018-08-03T16:46:11.270Z,101447.87
2018-08-03T16:48:40.145Z,101449.59
2018-08-03T16:51:09.005Z,101459.72
2018-08-03T16:53:37.984Z,101447.31
2018-08-03T16:56:06.819Z,101449.55
2018-08-03T16:58:35.740Z,101451.55
2018-08-03T17:01:04.634Z,101446.48
2018-08-03T17:03:33.737Z,101446.22
2018-08-03T17:06:02.718Z,101446.22
2018-08-03T17:08:31.861Z,101450.17
2018-08-03T17:11:07.472Z,101452.41
2018-08-03T17:13:36.409Z,101456.38
2018-08-03T17:16:06.149Z,101457.78
2018-08-03T17:18:35.101Z,101455.82
2018-08-03T17:21:04.083Z,101458.05
2018-08-03T17:23:33.045Z,101458.59
2018-08-03T17:26:02.081Z,101459.14
2018-08-03T17:28:30.940Z,101457.75
2018-08-03T17:30:59.845Z,101460.83
2018-08-03T17:33:28.856Z,101462.23
2018-08-03T17:35:57.941Z,101456.03
2018-08-03T17:38:26.783Z,101453.21
2018-08-03T17:40:55.767Z,101464.17
2018-08-03T17:43:24.630Z,101459.91
2018-08-03T17:45:53.531Z,101462.42
2018-08-03T17:48:22.480Z,101464.05
2018-08-03T17:50:51.388Z,101461.26
2018-08-03T17:53:20.234Z,101454.77
2018-08-03T17:55:49.256Z,101453.37
2018-08-03T17:58:18.283Z,101445.77
2018-08-03T18:00:47.088Z,101450.23
2018-08-03T18:03:16.020Z,101456.09
2018-08-03T18:05:45.012Z,101457.94
2018-08-03T18:08:14.065Z,101454.54
2018-08-03T18:10:43.102Z,101455.34
2018-08-03T18:13:12.189Z,101451.39
2018-08-03T18:15:41.123Z,101457.81
2018-08-03T18:18:10.105Z,101454.93
2018-08-03T18:20:38.919Z,101449.90
2018-08-03T18:23:07.779Z,101450.61
2018-08-03T18:25:36.716Z,101449.73
2018-08-03T18:28:05.633Z,101448.84
2018-08-03T18:30:34.433Z,101453.00
2018-08-03T18:33:03.312Z,101462.17
2018-08-03T18:35:32.200Z,101461.85
2018-08-03T18:38:01.091Z,101470.17
2018-08-03T18:40:33.352Z,101461.64
2018-08-03T18:43:02.157Z,101463.49
2018-08-03T18:45:30.999Z,101459.74
2018-08-03T18:47:59.891Z,101466.12
2018-08-03T18:50:28.757Z,101464.31
2018-08-03T18:52:57.633Z,101464.72
2018-08-03T18:55:26.507Z,101466.59
2018-08-03T18:57:55.461Z,101459.25
2018-08-03T19:00:24.449Z,101467.53
2018-08-03T19:02:53.575Z,101471.52
2018-08-03T19:05:22.601Z,101466.84
2018-08-03T19:07:51.456Z,101461.88
2018-08-03T19:10:20.307Z,101468.89
2018-08-03T19:12:49.238Z,101473.00
2018-08-03T19:15:18.035Z,101472.30
2018-08-03T19:17:46.869Z,101472.69
2018-08-03T19:20:15.711Z,101473.29
2018-08-03T19:22:44.607Z,101470.28
2018-08-03T19:25:13.641Z,101475.98
2018-08-03T19:27:42.521Z,101472.52
2018-08-03T19:30:11.424Z,101483.66
2018-08-03T19:32:40.296Z,101488.58
2018-08-03T19:35:09.166Z,101481.42
2018-08-03T19:37:38.045Z,101484.03
2018-08-03T19:40:07.464Z,101484.09
2018-08-03T19:42:36.379Z,101482.27
2018-08-03T19:45:06.019Z,101481.83
2018-08-03T19:47:34.965Z,101474.95
2018-08-03T19:50:03.916Z,101484.70
2018-08-03T19:52:32.819Z,101490.98
2018-08-03T19:55:01.656Z,101490.55
2018-08-03T19:57:30.531Z,101488.15
2018-08-03T19:59:59.421Z,101489.25
2018-08-03T20:02:28.296Z,101491.14
2018-08-03T20:04:57.261Z,101493.28
2018-08-03T20:07:26.300Z,101493.31
2018-08-03T20:09:55.792Z,101488.39
2018-08-03T20:12:25.130Z,101495.05
2018-08-03T20:14:54.234Z,101491.07
2018-08-03T20:17:23.296Z,101488.41
2018-08-03T20:19:52.180Z,101488.09
2018-08-03T20:22:21.068Z,101479.91
2018-08-03T20:24:49.938Z,101477.66
2018-08-03T20:27:18.837Z,101481.09
2018-08-03T20:29:47.691Z,101481.37
2018-08-03T20:32:16.708Z,101473.58
2018-08-03T20:34:45.602Z,101475.69
2018-08-03T20:37:14.533Z,101480.53
2018-08-03T20:39:43.382Z,101486.98
2018-08-03T20:42:12.288Z,101491.86
2018-08-03T20:44:41.306Z,101490.58
2018-08-03T20:47:10.057Z,101492.55
2018-08-03T20:49:38.941Z,101487.54
2018-08-03T20:52:10.381Z,101488.80
2018-08-03T20:54:39.202Z,101485.55
2018-08-03T20:57:08.083Z,101484.92
2018-08-03T20:59:36.948Z,101493.13
2018-08-03T21:02:05.965Z,101495.69
2018-08-03T21:04:35.166Z,101491.89
2018-08-03T21:07:04.170Z,101502.39
2018-08-03T21:09:33.182Z,101500.70
2018-08-03T21:12:02.106Z,101495.98
2018-08-03T21:14:31.093Z,101497.44
2018-08-03T21:17:00.025Z,101497.98
2018-08-03T21:19:29.157Z,101498.70
2018-08-03T21:21:58.012Z,101512.22
2018-08-03T21:24:26.905Z,101511.77
2018-08-03T21:26:55.745Z,101518.87
2018-08-03T21:29:24.589Z,101527.92
2018-08-03T21:31:53.509Z,101525.42
2018-08-03T21:34:22.285Z,101519.58
2018-08-03T21:36:51.339Z,101524.83
2018-08-03T21:39:20.165Z,101524.66
2018-08-03T21:41:49.065Z,101530.98
2018-08-03T21:44:17.917Z,101528.95
2018-08-03T21:46:46.837Z,101529.09
2018-08-03T21:49:15.712Z,101527.51
2018-08-03T21:51:44.538Z,101533.39
2018-08-03T21:54:13.412Z,101536.19
2018-08-03T21:56:42.261Z,101534.15
2018-08-03T21:59:11.140Z,101535.64
2018-08-03T22:01:40.084Z,101537.64
2018-08-03T22:04:09.246Z,101533.56
2018-08-03T22:06:38.230Z,101536.56
2018-08-03T22:09:08.539Z,101538.31
2018-08-03T22:11:37.484Z,101536.99
2018-08-03T22:14:06.833Z,101536.05
2018-08-03T22:16:35.679Z,101541.89
2018-08-03T22:19:04.572Z,101548.37
2018-08-03T22:21:33.538Z,101560.25
2018-08-03T22:24:02.446Z,101561.23
2018-08-03T22:26:31.282Z,101562.55
2018-08-03T22:29:00.166Z,101550.83
2018-08-03T22:31:29.086Z,101554.52
2018-08-03T22:33:57.865Z,101554.20
2018-08-03T22:36:26.709Z,101559.34
2018-08-03T22:38:55.552Z,101555.11
2018-08-03T22:41:30.578Z,101562.95
2018-08-03T22:43:59.420Z,101558.16
2018-08-03T22:46:28.271Z,101560.86
2018-08-03T22:48:57.109Z,101564.08
2018-08-03T22:51:25.940Z,101571.02
2018-08-03T22:53:55.015Z,101571.59
2018-08-03T22:56:23.911Z,101574.59
2018-08-03T22:58:52.896Z,101574.39
2018-08-03T23:01:21.839Z,101577.38
2018-08-03T23:03:53.779Z,101580.41
2018-08-03T23:06:22.616Z,101575.08
2018-08-03T23:08:51.462Z,101576.61
2018-08-03T23:11:20.354Z,101580.25
2018-08-03T23:13:49.231Z,101572.70
2018-08-03T23:16:18.064Z,101568.55
2018-08-03T23:18:47.090Z,101569.30
2018-08-03T23:21:15.921Z,101569.62
2018-08-03T23:23:44.776Z,101571.11
2018-08-03T23:26:13.752Z,101568.58
2018-08-03T23:28:42.596Z,101572.77
2018-08-03T23:31:11.456Z,101567.14
2018-08-03T23:33:40.301Z,101570.77
2018-08-03T23:36:09.122Z,101567.89
2018-08-03T23:38:37.967Z,101558.28
2018-08-03T23:41:06.819Z,101554.91
2018-08-03T23:43:35.694Z,101557.67
2018-08-03T23:46:04.587Z,101550.64
2018-08-03T23:48:51.234Z,101552.26
2018-08-03T23:51:20.097Z,101538.61
2018-08-03T23:53:48.949Z,101527.94
2018-08-03T23:56:17.788Z,101522.61
2018-08-03T23:58:46.633Z,101526.05
